Search for airport 
image banner adimage banner adimage banner ad
image banner ad

KERI - Erie Intl/Tom Ridge Field

Located in Erie, United States

ICAO - ERI, IATA - ERI

Data provided by Airmate  

General information

Coordinates: N42°4'59" W80°10'26"
Elevation is 732 feet MSL.
Magnetic variation is -10° East
View others Airports in Pennsylvania

Operational data

Special qualification required
Current time UTC:
Current local time:
Weather
METAR: KERI 091251Z 15006KT 10SM CLR 08/02 A3003 RMK AO2 SLP174 T00780022
TAF: KERI 091126Z 0912/1012 17005KT P6SM BKN200 FM091600 14006KT 6SM -RA OVC035 FM091800 10008KT 5SM -RA OVC025 FM092100 05014G22KT 2SM RA OVC008 FM100300 02012G20KT P6SM OVC008 FM100700 35007KT P6SM BKN025
View NOTAMs / SUP AIP / TFR affecting this airport [VIEW]
Communications frequencies: [VIEW]

Runways:

RWY identifierQFULength (ft)Width (ft)SurfaceLDA (ft)
0210°3508150ASPH2520
20190°3508150ASPH2902
0654°8420150ASPH7501
24234°8420150ASPH7501

Airport contact information

Address: Erie United States

Other aviation service providers

Flight schools

North Coast Flight School, Inc.

North Coast Flight School, Inc.
gshncfs@yahoo.com+1(814)434-0875

Satellite view of KERI